sensor_id;sensor_type;location;lat;lon;timestamp;temperature;humidity
11639;DHT22;5875;35.940;126.892;2023-11-21T00:00:02;11.90;99.90
11639;DHT22;5875;35.940;126.892;2023-11-21T00:02:29;12.30;99.90
11639;DHT22;5875;35.940;126.892;2023-11-21T00:04:56;12.70;99.90
11639;DHT22;5875;35.940;126.892;2023-11-21T00:07:24;12.90;99.90
11639;DHT22;5875;35.940;126.892;2023-11-21T00:09:54;13.20;99.90
11639;DHT22;5875;35.940;126.892;2023-11-21T00:12:22;13.30;99.90
11639;DHT22;5875;35.940;126.892;2023-11-21T00:14:51;13.70;99.90
11639;DHT22;5875;35.940;126.892;2023-11-21T00:17:18;14.00;99.90
11639;DHT22;5875;35.940;126.892;2023-11-21T00:19:45;13.90;99.90
11639;DHT22;5875;35.940;126.892;2023-11-21T00:22:12;14.20;99.90
11639;DHT22;5875;35.940;126.892;2023-11-21T00:24:39;14.50;99.90
11639;DHT22;5875;35.940;126.892;2023-11-21T00:27:06;14.90;99.90
11639;DHT22;5875;35.940;126.892;2023-11-21T00:29:34;15.20;99.90
11639;DHT22;5875;35.940;126.892;2023-11-21T00:32:01;15.40;99.90
11639;DHT22;5875;35.940;126.892;2023-11-21T00:34:28;15.80;99.90
11639;DHT22;5875;35.940;126.892;2023-11-21T00:36:56;15.90;99.90
11639;DHT22;5875;35.940;126.892;2023-11-21T00:39:23;16.00;99.90
11639;DHT22;5875;35.940;126.892;2023-11-21T00:41:50;16.30;99.90
11639;DHT22;5875;35.940;126.892;2023-11-21T00:44:17;16.10;99.90
11639;DHT22;5875;35.940;126.892;2023-11-21T00:46:45;16.40;99.90
11639;DHT22;5875;35.940;126.892;2023-11-21T00:49:15;16.60;99.90
11639;DHT22;5875;35.940;126.892;2023-11-21T00:51:45;16.80;99.90
11639;DHT22;5875;35.940;126.892;2023-11-21T00:54:12;17.10;99.90
11639;DHT22;5875;35.940;126.892;2023-11-21T00:56:39;17.20;99.90
11639;DHT22;5875;35.940;126.892;2023-11-21T00:59:06;17.10;99.90
11639;DHT22;5875;35.940;126.892;2023-11-21T01:01:33;17.40;99.90
11639;DHT22;5875;35.940;126.892;2023-11-21T01:04:00;17.80;99.90
11639;DHT22;5875;35.940;126.892;2023-11-21T01:06:28;18.00;99.90
11639;DHT22;5875;35.940;126.892;2023-11-21T01:08:56;18.20;99.90
11639;DHT22;5875;35.940;126.892;2023-11-21T01:11:23;18.20;99.90
11639;DHT22;5875;35.940;126.892;2023-11-21T01:13:53;18.50;99.90
11639;DHT22;5875;35.940;126.892;2023-11-21T01:16:20;18.70;99.90
11639;DHT22;5875;35.940;126.892;2023-11-21T01:18:51;18.70;99.90
11639;DHT22;5875;35.940;126.892;2023-11-21T01:21:18;18.90;99.90
11639;DHT22;5875;35.940;126.892;2023-11-21T01:23:45;18.60;99.90
11639;DHT22;5875;35.940;126.892;2023-11-21T01:26:14;18.60;99.90
11639;DHT22;5875;35.940;126.892;2023-11-21T01:28:41;18.80;99.90
11639;DHT22;5875;35.940;126.892;2023-11-21T01:31:08;18.90;99.90
11639;DHT22;5875;35.940;126.892;2023-11-21T01:33:35;19.10;99.90
11639;DHT22;5875;35.940;126.892;2023-11-21T01:36:02;19.30;99.90
11639;DHT22;5875;35.940;126.892;2023-11-21T01:38:30;19.40;99.90
11639;DHT22;5875;35.940;126.892;2023-11-21T01:40:58;18.90;99.90
11639;DHT22;5875;35.940;126.892;2023-11-21T01:43:27;18.90;99.90
11639;DHT22;5875;35.940;126.892;2023-11-21T01:45:57;19.00;99.90
11639;DHT22;5875;35.940;126.892;2023-11-21T01:48:24;19.10;99.90
11639;DHT22;5875;35.940;126.892;2023-11-21T01:50:52;19.00;99.90
11639;DHT22;5875;35.940;126.892;2023-11-21T01:53:23;19.10;99.90
11639;DHT22;5875;35.940;126.892;2023-11-21T01:55:52;19.50;99.90
11639;DHT22;5875;35.940;126.892;2023-11-21T01:58:20;19.30;99.90
11639;DHT22;5875;35.940;126.892;2023-11-21T02:00:48;19.40;99.90
11639;DHT22;5875;35.940;126.892;2023-11-21T02:03:17;18.80;99.90
11639;DHT22;5875;35.940;126.892;2023-11-21T02:05:44;18.70;99.90
11639;DHT22;5875;35.940;126.892;2023-11-21T02:08:12;19.30;99.90
11639;DHT22;5875;35.940;126.892;2023-11-21T02:10:39;19.40;99.90
11639;DHT22;5875;35.940;126.892;2023-11-21T02:13:07;19.30;99.90
11639;DHT22;5875;35.940;126.892;2023-11-21T02:15:34;19.20;99.90
11639;DHT22;5875;35.940;126.892;2023-11-21T02:18:02;18.90;99.90
11639;DHT22;5875;35.940;126.892;2023-11-21T02:20:29;18.90;99.90
11639;DHT22;5875;35.940;126.892;2023-11-21T02:22:57;18.80;99.90
11639;DHT22;5875;35.940;126.892;2023-11-21T02:25:29;18.90;99.90
11639;DHT22;5875;35.940;126.892;2023-11-21T02:27:58;18.80;99.90
11639;DHT22;5875;35.940;126.892;2023-11-21T02:30:26;18.70;97.40
11639;DHT22;5875;35.940;126.892;2023-11-21T02:32:58;18.00;90.40
11639;DHT22;5875;35.940;126.892;2023-11-21T02:35:28;18.30;90.40
11639;DHT22;5875;35.940;126.892;2023-11-21T02:37:57;18.30;79.40
11639;DHT22;5875;35.940;126.892;2023-11-21T02:40:24;18.10;73.50
11639;DHT22;5875;35.940;126.892;2023-11-21T02:42:52;18.30;64.90
11639;DHT22;5875;35.940;126.892;2023-11-21T02:45:20;18.30;62.20
11639;DHT22;5875;35.940;126.892;2023-11-21T02:47:48;18.30;55.20
11639;DHT22;5875;35.940;126.892;2023-11-21T02:50:20;18.10;50.30
11639;DHT22;5875;35.940;126.892;2023-11-21T02:52:50;18.30;51.60
11639;DHT22;5875;35.940;126.892;2023-11-21T02:55:17;18.30;52.90
11639;DHT22;5875;35.940;126.892;2023-11-21T02:57:44;18.40;52.30
11639;DHT22;5875;35.940;126.892;2023-11-21T03:00:11;18.40;48.50
11639;DHT22;5875;35.940;126.892;2023-11-21T03:02:42;18.50;48.40
11639;DHT22;5875;35.940;126.892;2023-11-21T03:05:10;18.40;47.70
11639;DHT22;5875;35.940;126.892;2023-11-21T03:07:38;18.00;43.10
11639;DHT22;5875;35.940;126.892;2023-11-21T03:10:06;18.10;39.90
11639;DHT22;5875;35.940;126.892;2023-11-21T03:12:38;18.30;37.10
11639;DHT22;5875;35.940;126.892;2023-11-21T03:15:09;18.30;29.40
11639;DHT22;5875;35.940;126.892;2023-11-21T03:17:39;18.60;29.60
11639;DHT22;5875;35.940;126.892;2023-11-21T03:20:07;18.60;27.40
11639;DHT22;5875;35.940;126.892;2023-11-21T03:22:37;18.60;21.70
11639;DHT22;5875;35.940;126.892;2023-11-21T03:25:05;18.10;23.70
11639;DHT22;5875;35.940;126.892;2023-11-21T03:27:33;18.40;27.30
11639;DHT22;5875;35.940;126.892;2023-11-21T03:30:00;18.30;26.00
11639;DHT22;5875;35.940;126.892;2023-11-21T03:32:27;18.60;28.10
11639;DHT22;5875;35.940;126.892;2023-11-21T03:34:58;18.70;26.10
11639;DHT22;5875;35.940;126.892;2023-11-21T03:37:26;18.80;24.30
11639;DHT22;5875;35.940;126.892;2023-11-21T03:39:55;18.80;25.80
11639;DHT22;5875;35.940;126.892;2023-11-21T03:42:22;19.00;22.50
11639;DHT22;5875;35.940;126.892;2023-11-21T03:44:50;19.00;20.20
11639;DHT22;5875;35.940;126.892;2023-11-21T03:47:17;18.90;16.70
11639;DHT22;5875;35.940;126.892;2023-11-21T03:49:45;19.10;19.30
11639;DHT22;5875;35.940;126.892;2023-11-21T03:52:12;18.90;18.10
11639;DHT22;5875;35.940;126.892;2023-11-21T03:54:40;18.90;15.30
11639;DHT22;5875;35.940;126.892;2023-11-21T03:57:07;18.90;15.60
11639;DHT22;5875;35.940;126.892;2023-11-21T03:59:39;18.90;17.60
11639;DHT22;5875;35.940;126.892;2023-11-21T04:02:06;18.90;11.10
11639;DHT22;5875;35.940;126.892;2023-11-21T04:04:34;19.10;16.50
11639;DHT22;5875;35.940;126.892;2023-11-21T04:07:02;19.10;18.40
11639;DHT22;5875;35.940;126.892;2023-11-21T04:09:29;19.20;17.40
11639;DHT22;5875;35.940;126.892;2023-11-21T04:11:56;19.00;12.80
11639;DHT22;5875;35.940;126.892;2023-11-21T04:14:27;19.00;15.60
11639;DHT22;5875;35.940;126.892;2023-11-21T04:16:54;19.10;12.70
11639;DHT22;5875;35.940;126.892;2023-11-21T04:19:21;18.90;10.50
11639;DHT22;5875;35.940;126.892;2023-11-21T04:21:48;18.80;12.00
11639;DHT22;5875;35.940;126.892;2023-11-21T04:24:16;19.00;13.50
11639;DHT22;5875;35.940;126.892;2023-11-21T04:26:44;18.90;11.20
11639;DHT22;5875;35.940;126.892;2023-11-21T04:29:11;18.70;8.60
11639;DHT22;5875;35.940;126.892;2023-11-21T04:31:39;18.50;8.20
11639;DHT22;5875;35.940;126.892;2023-11-21T04:34:06;18.50;9.50
11639;DHT22;5875;35.940;126.892;2023-11-21T04:36:33;18.60;7.70
11639;DHT22;5875;35.940;126.892;2023-11-21T04:39:04;18.70;10.50
11639;DHT22;5875;35.940;126.892;2023-11-21T04:41:33;18.70;8.70
11639;DHT22;5875;35.940;126.892;2023-11-21T04:44:00;18.90;8.20
11639;DHT22;5875;35.940;126.892;2023-11-21T04:46:27;18.80;6.10
11639;DHT22;5875;35.940;126.892;2023-11-21T04:48:54;18.80;3.60
11639;DHT22;5875;35.940;126.892;2023-11-21T04:51:24;18.80;3.00
11639;DHT22;5875;35.940;126.892;2023-11-21T04:53:54;18.60;2.60
11639;DHT22;5875;35.940;126.892;2023-11-21T04:56:21;18.90;3.70
11639;DHT22;5875;35.940;126.892;2023-11-21T04:58:48;18.80;2.90
11639;DHT22;5875;35.940;126.892;2023-11-21T05:01:16;18.70;2.20
11639;DHT22;5875;35.940;126.892;2023-11-21T05:03:43;18.60;1.00
11639;DHT22;5875;35.940;126.892;2023-11-21T05:06:10;18.60;1.00
11639;DHT22;5875;35.940;126.892;2023-11-21T05:08:38;18.40;1.00
11639;DHT22;5875;35.940;126.892;2023-11-21T05:11:05;18.50;1.00
11639;DHT22;5875;35.940;126.892;2023-11-21T05:13:36;18.60;1.00
11639;DHT22;5875;35.940;126.892;2023-11-21T05:16:05;18.60;1.00
11639;DHT22;5875;35.940;126.892;2023-11-21T05:18:33;18.60;1.00
11639;DHT22;5875;35.940;126.892;2023-11-21T05:21:01;18.40;1.00
11639;DHT22;5875;35.940;126.892;2023-11-21T05:23:28;18.50;1.00
11639;DHT22;5875;35.940;126.892;2023-11-21T05:25:55;18.60;1.00
11639;DHT22;5875;35.940;126.892;2023-11-21T05:28:23;18.50;1.00
11639;DHT22;5875;35.940;126.892;2023-11-21T05:30:53;18.40;1.00
11639;DHT22;5875;35.940;126.892;2023-11-21T05:33:21;18.40;1.00
11639;DHT22;5875;35.940;126.892;2023-11-21T05:35:48;18.40;1.00
11639;DHT22;5875;35.940;126.892;2023-11-21T05:38:15;18.40;1.00
11639;DHT22;5875;35.940;126.892;2023-11-21T05:40:42;18.30;1.00
11639;DHT22;5875;35.940;126.892;2023-11-21T05:43:10;18.20;1.00
11639;DHT22;5875;35.940;126.892;2023-11-21T05:45:38;18.10;1.00
11639;DHT22;5875;35.940;126.892;2023-11-21T05:48:05;18.00;1.00
11639;DHT22;5875;35.940;126.892;2023-11-21T05:50:32;18.10;1.00
11639;DHT22;5875;35.940;126.892;2023-11-21T05:52:59;18.00;1.00
11639;DHT22;5875;35.940;126.892;2023-11-21T05:55:27;18.00;1.00
11639;DHT22;5875;35.940;126.892;2023-11-21T05:57:54;17.90;1.00
11639;DHT22;5875;35.940;126.892;2023-11-21T06:00:21;17.90;1.00
11639;DHT22;5875;35.940;126.892;2023-11-21T06:02:52;17.90;1.00
11639;DHT22;5875;35.940;126.892;2023-11-21T06:05:23;17.90;1.00
11639;DHT22;5875;35.940;126.892;2023-11-21T06:07:52;17.90;1.00
11639;DHT22;5875;35.940;126.892;2023-11-21T06:10:21;17.80;1.00
11639;DHT22;5875;35.940;126.892;2023-11-21T06:12:50;17.70;1.00
11639;DHT22;5875;35.940;126.892;2023-11-21T06:15:17;17.80;1.00
11639;DHT22;5875;35.940;126.892;2023-11-21T06:17:49;17.70;1.00
11639;DHT22;5875;35.940;126.892;2023-11-21T06:20:19;17.60;1.00
11639;DHT22;5875;35.940;126.892;2023-11-21T06:22:50;17.60;1.00
11639;DHT22;5875;35.940;126.892;2023-11-21T06:25:18;17.60;1.00
11639;DHT22;5875;35.940;126.892;2023-11-21T06:27:49;17.50;1.00
11639;DHT22;5875;35.940;126.892;2023-11-21T06:30:18;17.50;1.00
11639;DHT22;5875;35.940;126.892;2023-11-21T06:32:46;17.50;1.00
11639;DHT22;5875;35.940;126.892;2023-11-21T06:35:13;17.40;1.00
11639;DHT22;5875;35.940;126.892;2023-11-21T06:37:41;17.40;1.00
11639;DHT22;5875;35.940;126.892;2023-11-21T06:40:14;17.30;1.00
11639;DHT22;5875;35.940;126.892;2023-11-21T06:42:41;17.30;1.00
11639;DHT22;5875;35.940;126.892;2023-11-21T06:45:13;17.10;1.00
11639;DHT22;5875;35.940;126.892;2023-11-21T06:47:41;17.00;1.00
11639;DHT22;5875;35.940;126.892;2023-11-21T06:50:08;17.00;2.90
11639;DHT22;5875;35.940;126.892;2023-11-21T06:52:36;17.00;2.30
11639;DHT22;5875;35.940;126.892;2023-11-21T06:55:03;16.90;4.70
11639;DHT22;5875;35.940;126.892;2023-11-21T06:57:31;16.80;2.10
11639;DHT22;5875;35.940;126.892;2023-11-21T06:59:59;16.80;4.40
11639;DHT22;5875;35.940;126.892;2023-11-21T07:02:29;16.80;3.20
11639;DHT22;5875;35.940;126.892;2023-11-21T07:04:56;16.90;3.30
11639;DHT22;5875;35.940;126.892;2023-11-21T07:07:23;16.90;1.20
11639;DHT22;5875;35.940;126.892;2023-11-21T07:09:50;16.80;1.50
11639;DHT22;5875;35.940;126.892;2023-11-21T07:12:18;16.80;2.50
11639;DHT22;5875;35.940;126.892;2023-11-21T07:14:45;16.80;3.70
11639;DHT22;5875;35.940;126.892;2023-11-21T07:17:13;16.60;3.60
11639;DHT22;5875;35.940;126.892;2023-11-21T07:19:40;16.50;4.90
11639;DHT22;5875;35.940;126.892;2023-11-21T07:22:08;16.50;8.00
11639;DHT22;5875;35.940;126.892;2023-11-21T07:24:38;16.40;8.80
11639;DHT22;5875;35.940;126.892;2023-11-21T07:27:05;16.20;7.10
11639;DHT22;5875;35.940;126.892;2023-11-21T07:29:32;16.10;8.40
11639;DHT22;5875;35.940;126.892;2023-11-21T07:32:00;16.00;6.40
11639;DHT22;5875;35.940;126.892;2023-11-21T07:34:27;16.00;7.50
11639;DHT22;5875;35.940;126.892;2023-11-21T07:36:55;15.90;5.90
11639;DHT22;5875;35.940;126.892;2023-11-21T07:39:22;15.70;10.90
11639;DHT22;5875;35.940;126.892;2023-11-21T07:41:52;15.60;14.90
11639;DHT22;5875;35.940;126.892;2023-11-21T07:44:19;15.40;19.50
11639;DHT22;5875;35.940;126.892;2023-11-21T07:46:47;15.40;24.10
11639;DHT22;5875;35.940;126.892;2023-11-21T07:49:16;15.30;25.10
11639;DHT22;5875;35.940;126.892;2023-11-21T07:51:48;15.30;25.80
11639;DHT22;5875;35.940;126.892;2023-11-21T07:54:16;15.20;25.50
11639;DHT22;5875;35.940;126.892;2023-11-21T07:56:43;15.10;26.30
11639;DHT22;5875;35.940;126.892;2023-11-21T07:59:11;15.00;27.00
11639;DHT22;5875;35.940;126.892;2023-11-21T08:01:39;14.90;28.40
11639;DHT22;5875;35.940;126.892;2023-11-21T08:04:07;14.80;30.30
11639;DHT22;5875;35.940;126.892;2023-11-21T08:06:34;14.70;30.90
11639;DHT22;5875;35.940;126.892;2023-11-21T08:09:01;14.50;31.90
11639;DHT22;5875;35.940;126.892;2023-11-21T08:11:29;14.50;37.70
11639;DHT22;5875;35.940;126.892;2023-11-21T08:13:58;14.30;42.20
11639;DHT22;5875;35.940;126.892;2023-11-21T08:16:26;14.20;45.40
11639;DHT22;5875;35.940;126.892;2023-11-21T08:18:53;14.00;48.10
11639;DHT22;5875;35.940;126.892;2023-11-21T08:21:21;14.00;46.40
11639;DHT22;5875;35.940;126.892;2023-11-21T08:23:50;13.80;49.20
11639;DHT22;5875;35.940;126.892;2023-11-21T08:26:21;13.60;51.20
11639;DHT22;5875;35.940;126.892;2023-11-21T08:28:49;13.50;49.70
11639;DHT22;5875;35.940;126.892;2023-11-21T08:31:24;13.30;51.60
11639;DHT22;5875;35.940;126.892;2023-11-21T08:33:52;13.10;55.10
11639;DHT22;5875;35.940;126.892;2023-11-21T08:36:22;13.00;56.70
11639;DHT22;5875;35.940;126.892;2023-11-21T08:38:52;13.00;58.80
11639;DHT22;5875;35.940;126.892;2023-11-21T08:41:19;12.90;60.90
11639;DHT22;5875;35.940;126.892;2023-11-21T08:43:52;12.80;64.00
11639;DHT22;5875;35.940;126.892;2023-11-21T08:46:21;12.70;66.60
11639;DHT22;5875;35.940;126.892;2023-11-21T08:48:49;12.70;68.30
11639;DHT22;5875;35.940;126.892;2023-11-21T08:51:18;12.50;70.40
11639;DHT22;5875;35.940;126.892;2023-11-21T08:53:46;12.40;74.50
11639;DHT22;5875;35.940;126.892;2023-11-21T08:56:14;12.30;74.20
11639;DHT22;5875;35.940;126.892;2023-11-21T08:58:41;12.20;79.70
11639;DHT22;5875;35.940;126.892;2023-11-21T09:01:11;12.10;81.60
11639;DHT22;5875;35.940;126.892;2023-11-21T09:03:38;12.00;86.40
11639;DHT22;5875;35.940;126.892;2023-11-21T09:06:06;11.90;89.10
11639;DHT22;5875;35.940;126.892;2023-11-21T09:08:36;11.80;91.80
11639;DHT22;5875;35.940;126.892;2023-11-21T09:11:04;11.80;94.30
11639;DHT22;5875;35.940;126.892;2023-11-21T09:13:31;11.70;98.20
11639;DHT22;5875;35.940;126.892;2023-11-21T09:15:58;11.60;99.90
11639;DHT22;5875;35.940;126.892;2023-11-21T09:18:26;11.60;99.90
11639;DHT22;5875;35.940;126.892;2023-11-21T09:20:53;11.50;99.90
11639;DHT22;5875;35.940;126.892;2023-11-21T09:23:20;11.40;99.90
11639;DHT22;5875;35.940;126.892;2023-11-21T09:25:47;11.40;99.90
11639;DHT22;5875;35.940;126.892;2023-11-21T09:28:16;11.30;99.90
11639;DHT22;5875;35.940;126.892;2023-11-21T09:30:44;11.30;99.90
11639;DHT22;5875;35.940;126.892;2023-11-21T09:33:11;11.10;99.90
11639;DHT22;5875;35.940;126.892;2023-11-21T09:35:38;11.00;99.90
11639;DHT22;5875;35.940;126.892;2023-11-21T09:38:06;10.90;99.90
11639;DHT22;5875;35.940;126.892;2023-11-21T09:40:37;10.90;99.90
11639;DHT22;5875;35.940;126.892;2023-11-21T09:43:09;10.90;99.90
11639;DHT22;5875;35.940;126.892;2023-11-21T09:45:46;10.80;99.90
11639;DHT22;5875;35.940;126.892;2023-11-21T09:48:15;10.80;99.90
11639;DHT22;5875;35.940;126.892;2023-11-21T09:50:43;10.70;99.90
11639;DHT22;5875;35.940;126.892;2023-11-21T09:53:20;10.60;99.90
11639;DHT22;5875;35.940;126.892;2023-11-21T09:55:54;10.50;99.90
11639;DHT22;5875;35.940;126.892;2023-11-21T09:58:21;10.50;99.90
11639;DHT22;5875;35.940;126.892;2023-11-21T10:00:55;10.40;99.90
11639;DHT22;5875;35.940;126.892;2023-11-21T10:03:23;10.40;99.90
11639;DHT22;5875;35.940;126.892;2023-11-21T10:05:51;10.40;99.90
11639;DHT22;5875;35.940;126.892;2023-11-21T10:08:22;10.30;99.90
11639;DHT22;5875;35.940;126.892;2023-11-21T10:10:52;10.20;99.90
11639;DHT22;5875;35.940;126.892;2023-11-21T10:13:20;10.10;99.90
11639;DHT22;5875;35.940;126.892;2023-11-21T10:15:51;10.00;99.90
11639;DHT22;5875;35.940;126.892;2023-11-21T10:18:20;9.80;99.90
11639;DHT22;5875;35.940;126.892;2023-11-21T10:20:49;9.70;99.90
11639;DHT22;5875;35.940;126.892;2023-11-21T10:23:20;9.70;99.90
11639;DHT22;5875;35.940;126.892;2023-11-21T10:25:48;9.70;99.90
11639;DHT22;5875;35.940;126.892;2023-11-21T10:28:17;9.60;99.90
11639;DHT22;5875;35.940;126.892;2023-11-21T10:30:45;9.60;99.90
11639;DHT22;5875;35.940;126.892;2023-11-21T10:33:12;9.60;99.90
11639;DHT22;5875;35.940;126.892;2023-11-21T10:35:42;9.50;99.90
11639;DHT22;5875;35.940;126.892;2023-11-21T10:38:13;9.50;99.90
11639;DHT22;5875;35.940;126.892;2023-11-21T10:40:44;9.50;99.90
11639;DHT22;5875;35.940;126.892;2023-11-21T10:43:13;9.40;99.90
11639;DHT22;5875;35.940;126.892;2023-11-21T10:45:42;9.40;99.90
11639;DHT22;5875;35.940;126.892;2023-11-21T10:48:16;9.40;99.90
11639;DHT22;5875;35.940;126.892;2023-11-21T10:50:46;9.30;99.90
11639;DHT22;5875;35.940;126.892;2023-11-21T10:53:14;9.30;99.90
11639;DHT22;5875;35.940;126.892;2023-11-21T10:55:42;9.20;99.90
11639;DHT22;5875;35.940;126.892;2023-11-21T10:58:14;9.20;99.90
11639;DHT22;5875;35.940;126.892;2023-11-21T11:00:41;9.20;99.90
11639;DHT22;5875;35.940;126.892;2023-11-21T11:03:11;9.30;99.90
11639;DHT22;5875;35.940;126.892;2023-11-21T11:05:41;9.20;99.90
11639;DHT22;5875;35.940;126.892;2023-11-21T11:08:20;9.20;99.90
11639;DHT22;5875;35.940;126.892;2023-11-21T11:10:52;9.10;99.90
11639;DHT22;5875;35.940;126.892;2023-11-21T11:13:20;9.10;99.90
11639;DHT22;5875;35.940;126.892;2023-11-21T11:15:50;9.00;99.90
11639;DHT22;5875;35.940;126.892;2023-11-21T11:18:18;9.00;99.90
11639;DHT22;5875;35.940;126.892;2023-11-21T11:20:48;8.90;99.90
11639;DHT22;5875;35.940;126.892;2023-11-21T11:31:37;8.80;99.90
11639;DHT22;5875;35.940;126.892;2023-11-21T11:34:29;8.70;99.90
11639;DHT22;5875;35.940;126.892;2023-11-21T11:37:05;8.60;99.90
11639;DHT22;5875;35.940;126.892;2023-11-21T11:39:42;8.50;99.90
11639;DHT22;5875;35.940;126.892;2023-11-21T11:42:19;8.50;99.90
11639;DHT22;5875;35.940;126.892;2023-11-21T11:44:49;8.40;99.90
11639;DHT22;5875;35.940;126.892;2023-11-21T11:50:07;8.50;99.90
11639;DHT22;5875;35.940;126.892;2023-11-21T11:52:53;8.50;99.90
11639;DHT22;5875;35.940;126.892;2023-11-21T11:55:24;8.40;99.90
11639;DHT22;5875;35.940;126.892;2023-11-21T11:57:57;8.30;99.90
11639;DHT22;5875;35.940;126.892;2023-11-21T12:02:59;8.40;99.90
11639;DHT22;5875;35.940;126.892;2023-11-21T12:05:31;8.50;99.90
11639;DHT22;5875;35.940;126.892;2023-11-21T12:08:12;8.50;99.90
11639;DHT22;5875;35.940;126.892;2023-11-21T12:10:39;8.50;99.90
11639;DHT22;5875;35.940;126.892;2023-11-21T12:13:09;8.50;99.90
11639;DHT22;5875;35.940;126.892;2023-11-21T12:15:37;8.40;99.90
11639;DHT22;5875;35.940;126.892;2023-11-21T12:18:05;8.20;99.90
11639;DHT22;5875;35.940;126.892;2023-11-21T12:20:33;8.10;99.90
11639;DHT22;5875;35.940;126.892;2023-11-21T12:23:05;8.20;99.90
11639;DHT22;5875;35.940;126.892;2023-11-21T12:25:33;8.10;99.90
11639;DHT22;5875;35.940;126.892;2023-11-21T12:28:01;8.10;99.90
11639;DHT22;5875;35.940;126.892;2023-11-21T12:30:30;8.10;99.90
11639;DHT22;5875;35.940;126.892;2023-11-21T12:32:59;8.10;99.90
11639;DHT22;5875;35.940;126.892;2023-11-21T12:35:31;8.00;99.90
11639;DHT22;5875;35.940;126.892;2023-11-21T12:38:01;7.90;99.90
11639;DHT22;5875;35.940;126.892;2023-11-21T12:40:29;7.80;99.90
11639;DHT22;5875;35.940;126.892;2023-11-21T12:42:58;7.80;99.90
11639;DHT22;5875;35.940;126.892;2023-11-21T12:45:26;7.80;99.90
11639;DHT22;5875;35.940;126.892;2023-11-21T12:47:58;7.80;99.90
11639;DHT22;5875;35.940;126.892;2023-11-21T12:50:27;7.80;99.90
11639;DHT22;5875;35.940;126.892;2023-11-21T12:53:00;7.80;99.90
11639;DHT22;5875;35.940;126.892;2023-11-21T12:55:33;7.80;99.90
11639;DHT22;5875;35.940;126.892;2023-11-21T12:58:05;7.80;99.90
11639;DHT22;5875;35.940;126.892;2023-11-21T13:00:40;7.70;99.90
11639;DHT22;5875;35.940;126.892;2023-11-21T13:03:10;7.50;99.90
11639;DHT22;5875;35.940;126.892;2023-11-21T13:05:39;7.50;99.90
11639;DHT22;5875;35.940;126.892;2023-11-21T13:08:12;7.40;99.90
11639;DHT22;5875;35.940;126.892;2023-11-21T13:10:45;7.30;99.90
11639;DHT22;5875;35.940;126.892;2023-11-21T13:13:13;7.40;99.90
11639;DHT22;5875;35.940;126.892;2023-11-21T13:15:54;7.40;99.90
11639;DHT22;5875;35.940;126.892;2023-11-21T13:18:24;7.40;99.90
11639;DHT22;5875;35.940;126.892;2023-11-21T13:20:57;7.30;99.90
11639;DHT22;5875;35.940;126.892;2023-11-21T13:23:24;7.20;99.90
11639;DHT22;5875;35.940;126.892;2023-11-21T13:25:53;7.20;99.90
11639;DHT22;5875;35.940;126.892;2023-11-21T13:28:20;7.40;99.90
11639;DHT22;5875;35.940;126.892;2023-11-21T13:30:48;7.30;99.90
11639;DHT22;5875;35.940;126.892;2023-11-21T13:33:19;7.40;99.90
11639;DHT22;5875;35.940;126.892;2023-11-21T13:35:48;7.30;99.90
11639;DHT22;5875;35.940;126.892;2023-11-21T13:38:18;7.20;99.90
11639;DHT22;5875;35.940;126.892;2023-11-21T13:40:59;7.20;99.90
11639;DHT22;5875;35.940;126.892;2023-11-21T13:43:27;7.20;99.90
11639;DHT22;5875;35.940;126.892;2023-11-21T13:45:55;7.20;99.90
11639;DHT22;5875;35.940;126.892;2023-11-21T13:48:29;7.10;99.90
11639;DHT22;5875;35.940;126.892;2023-11-21T13:51:07;7.00;99.90
11639;DHT22;5875;35.940;126.892;2023-11-21T13:53:48;7.00;99.90
11639;DHT22;5875;35.940;126.892;2023-11-21T13:56:17;6.80;99.90
11639;DHT22;5875;35.940;126.892;2023-11-21T13:58:50;6.90;99.90
11639;DHT22;5875;35.940;126.892;2023-11-21T14:01:23;6.90;99.90
11639;DHT22;5875;35.940;126.892;2023-11-21T14:04:00;6.80;99.90
11639;DHT22;5875;35.940;126.892;2023-11-21T14:06:50;6.80;99.90
11639;DHT22;5875;35.940;126.892;2023-11-21T14:09:21;6.90;99.90
11639;DHT22;5875;35.940;126.892;2023-11-21T14:11:59;7.00;99.90
11639;DHT22;5875;35.940;126.892;2023-11-21T14:14:28;6.90;99.90
11639;DHT22;5875;35.940;126.892;2023-11-21T14:16:56;6.80;99.90
11639;DHT22;5875;35.940;126.892;2023-11-21T14:19:25;6.70;99.90
11639;DHT22;5875;35.940;126.892;2023-11-21T14:21:58;6.60;99.90
11639;DHT22;5875;35.940;126.892;2023-11-21T14:24:26;6.60;99.90
11639;DHT22;5875;35.940;126.892;2023-11-21T14:26:53;6.60;99.90
11639;DHT22;5875;35.940;126.892;2023-11-21T14:29:21;6.60;99.90
11639;DHT22;5875;35.940;126.892;2023-11-21T14:31:49;6.50;99.90
11639;DHT22;5875;35.940;126.892;2023-11-21T14:34:18;6.50;99.90
11639;DHT22;5875;35.940;126.892;2023-11-21T14:36:45;6.50;99.90
11639;DHT22;5875;35.940;126.892;2023-11-21T14:39:12;6.60;99.90
11639;DHT22;5875;35.940;126.892;2023-11-21T14:41:54;6.60;99.90
11639;DHT22;5875;35.940;126.892;2023-11-21T14:44:23;6.60;99.90
11639;DHT22;5875;35.940;126.892;2023-11-21T14:46:53;6.70;99.90
11639;DHT22;5875;35.940;126.892;2023-11-21T14:49:22;6.70;99.90
11639;DHT22;5875;35.940;126.892;2023-11-21T14:51:56;6.70;99.90
11639;DHT22;5875;35.940;126.892;2023-11-21T14:54:52;6.70;99.90
11639;DHT22;5875;35.940;126.892;2023-11-21T14:57:39;6.50;99.90
11639;DHT22;5875;35.940;126.892;2023-11-21T15:00:07;6.50;99.90
11639;DHT22;5875;35.940;126.892;2023-11-21T15:02:54;6.50;99.90
11639;DHT22;5875;35.940;126.892;2023-11-21T15:05:21;6.50;99.90
11639;DHT22;5875;35.940;126.892;2023-11-21T15:07:50;6.50;99.90
11639;DHT22;5875;35.940;126.892;2023-11-21T15:10:24;6.50;99.90
11639;DHT22;5875;35.940;126.892;2023-11-21T15:13:12;6.50;99.90
11639;DHT22;5875;35.940;126.892;2023-11-21T15:15:43;6.30;99.90
11639;DHT22;5875;35.940;126.892;2023-11-21T15:18:10;6.30;99.90
11639;DHT22;5875;35.940;126.892;2023-11-21T15:20:40;6.30;99.90
11639;DHT22;5875;35.940;126.892;2023-11-21T15:23:10;6.30;99.90
11639;DHT22;5875;35.940;126.892;2023-11-21T15:25:39;6.20;99.90
11639;DHT22;5875;35.940;126.892;2023-11-21T15:28:06;6.20;99.90
11639;DHT22;5875;35.940;126.892;2023-11-21T15:30:33;6.20;99.90
11639;DHT22;5875;35.940;126.892;2023-11-21T15:33:01;6.20;99.90
11639;DHT22;5875;35.940;126.892;2023-11-21T15:35:30;6.20;99.90
11639;DHT22;5875;35.940;126.892;2023-11-21T15:38:04;6.20;99.90
11639;DHT22;5875;35.940;126.892;2023-11-21T15:40:34;6.20;99.90
11639;DHT22;5875;35.940;126.892;2023-11-21T15:43:01;6.10;99.90
11639;DHT22;5875;35.940;126.892;2023-11-21T15:45:29;6.10;99.90
11639;DHT22;5875;35.940;126.892;2023-11-21T15:47:57;6.10;99.90
11639;DHT22;5875;35.940;126.892;2023-11-21T15:50:24;6.10;99.90